sensor_id;sensor_type;location;lat;lon;timestamp;temperature;humidity
76139;DHT22;65138;50.946;7.074;2022-11-20T07:03:15;17.60;53.00
76139;DHT22;65138;50.946;7.074;2022-11-20T07:05:40;17.60;52.90
76139;DHT22;65138;50.946;7.074;2022-11-20T07:08:07;17.60;51.00
76139;DHT22;65138;50.946;7.074;2022-11-20T07:10:32;17.50;51.60
76139;DHT22;65138;50.946;7.074;2022-11-20T07:12:58;17.40;52.30
76139;DHT22;65138;50.946;7.074;2022-11-20T07:15:25;17.40;52.80
76139;DHT22;65138;50.946;7.074;2022-11-20T07:17:52;17.50;52.90
76139;DHT22;65138;50.946;7.074;2022-11-20T07:20:17;17.50;53.40
76139;DHT22;65138;50.946;7.074;2022-11-20T07:22:43;17.60;53.60
76139;DHT22;65138;50.946;7.074;2022-11-20T07:25:09;17.60;53.60
76139;DHT22;65138;50.946;7.074;2022-11-20T07:27:35;17.70;53.50
76139;DHT22;65138;50.946;7.074;2022-11-20T07:30:03;17.80;53.60
76139;DHT22;65138;50.946;7.074;2022-11-20T07:32:29;17.80;53.50
76139;DHT22;65138;50.946;7.074;2022-11-20T07:34:54;17.90;53.50
76139;DHT22;65138;50.946;7.074;2022-11-20T07:37:20;17.90;53.20
76139;DHT22;65138;50.946;7.074;2022-11-20T07:39:45;17.90;53.10
76139;DHT22;65138;50.946;7.074;2022-11-20T07:42:11;18.00;53.00
76139;DHT22;65138;50.946;7.074;2022-11-20T07:44:38;18.10;53.00
76139;DHT22;65138;50.946;7.074;2022-11-20T07:47:03;18.10;52.80
76139;DHT22;65138;50.946;7.074;2022-11-20T07:49:29;18.10;52.70
76139;DHT22;65138;50.946;7.074;2022-11-20T07:51:55;18.20;52.70
76139;DHT22;65138;50.946;7.074;2022-11-20T07:54:22;18.30;52.60
76139;DHT22;65138;50.946;7.074;2022-11-20T07:56:48;18.20;52.50
76139;DHT22;65138;50.946;7.074;2022-11-20T07:59:14;18.30;52.40
76139;DHT22;65138;50.946;7.074;2022-11-20T08:01:41;18.40;52.30
76139;DHT22;65138;50.946;7.074;2022-11-20T08:04:07;18.40;52.20
76139;DHT22;65138;50.946;7.074;2022-11-20T08:06:34;18.40;52.80
76139;DHT22;65138;50.946;7.074;2022-11-20T08:08:59;18.40;52.20
76139;DHT22;65138;50.946;7.074;2022-11-20T08:11:25;18.40;52.10
76139;DHT22;65138;50.946;7.074;2022-11-20T08:14:09;18.40;52.10
76139;DHT22;65138;50.946;7.074;2022-11-20T08:16:48;18.40;52.20
76139;DHT22;65138;50.946;7.074;2022-11-20T08:19:16;18.40;52.10
76139;DHT22;65138;50.946;7.074;2022-11-20T08:21:42;18.30;52.20
76139;DHT22;65138;50.946;7.074;2022-11-20T08:24:09;18.30;52.20
76139;DHT22;65138;50.946;7.074;2022-11-20T08:26:35;18.30;52.20
76139;DHT22;65138;50.946;7.074;2022-11-20T08:29:02;18.30;52.30
76139;DHT22;65138;50.946;7.074;2022-11-20T08:31:29;18.30;52.10
76139;DHT22;65138;50.946;7.074;2022-11-20T08:33:55;18.40;52.10
76139;DHT22;65138;50.946;7.074;2022-11-20T08:36:22;18.40;52.00
76139;DHT22;65138;50.946;7.074;2022-11-20T08:38:48;18.50;51.90
76139;DHT22;65138;50.946;7.074;2022-11-20T08:41:15;18.50;52.00
76139;DHT22;65138;50.946;7.074;2022-11-20T08:44:04;18.50;51.90
76139;DHT22;65138;50.946;7.074;2022-11-20T08:46:37;18.50;51.90
76139;DHT22;65138;50.946;7.074;2022-11-20T08:49:07;18.50;51.80
76139;DHT22;65138;50.946;7.074;2022-11-20T08:51:33;18.50;51.80
76139;DHT22;65138;50.946;7.074;2022-11-20T08:53:59;18.40;51.90
76139;DHT22;65138;50.946;7.074;2022-11-20T08:56:25;18.40;52.00
76139;DHT22;65138;50.946;7.074;2022-11-20T08:58:51;18.30;52.10
76139;DHT22;65138;50.946;7.074;2022-11-20T09:01:18;18.30;52.20
76139;DHT22;65138;50.946;7.074;2022-11-20T09:03:44;18.30;52.20
76139;DHT22;65138;50.946;7.074;2022-11-20T09:06:10;18.30;52.20
76139;DHT22;65138;50.946;7.074;2022-11-20T09:08:35;18.30;52.30
76139;DHT22;65138;50.946;7.074;2022-11-20T09:11:02;18.30;52.20
76139;DHT22;65138;50.946;7.074;2022-11-20T09:13:29;18.30;52.10
76139;DHT22;65138;50.946;7.074;2022-11-20T09:15:59;18.40;52.10
76139;DHT22;65138;50.946;7.074;2022-11-20T09:18:26;18.30;52.10
76139;DHT22;65138;50.946;7.074;2022-11-20T09:20:56;18.30;52.20
76139;DHT22;65138;50.946;7.074;2022-11-20T09:23:22;18.30;52.20
76139;DHT22;65138;50.946;7.074;2022-11-20T09:25:48;18.30;52.20
76139;DHT22;65138;50.946;7.074;2022-11-20T09:28:14;18.20;52.30
76139;DHT22;65138;50.946;7.074;2022-11-20T09:30:39;18.20;52.30
76139;DHT22;65138;50.946;7.074;2022-11-20T09:33:05;18.20;52.40
76139;DHT22;65138;50.946;7.074;2022-11-20T09:35:32;18.30;52.20
76139;DHT22;65138;50.946;7.074;2022-11-20T09:37:58;18.50;52.00
76139;DHT22;65138;50.946;7.074;2022-11-20T09:40:26;18.80;51.50
76139;DHT22;65138;50.946;7.074;2022-11-20T09:45:50;19.40;49.90
76139;DHT22;65138;50.946;7.074;2022-11-20T09:48:42;19.60;49.60
76139;DHT22;65138;50.946;7.074;2022-11-20T09:54:09;19.80;49.20
76139;DHT22;65138;50.946;7.074;2022-11-20T09:56:41;19.80;49.20
76139;DHT22;65138;50.946;7.074;2022-11-20T09:59:15;19.80;49.30
76139;DHT22;65138;50.946;7.074;2022-11-20T10:01:43;19.60;47.80
76139;DHT22;65138;50.946;7.074;2022-11-20T10:04:16;19.20;46.00
76139;DHT22;65138;50.946;7.074;2022-11-20T10:07:04;19.00;47.60
76139;DHT22;65138;50.946;7.074;2022-11-20T10:09:36;19.10;47.30
76139;DHT22;65138;50.946;7.074;2022-11-20T10:12:20;19.20;47.70
76139;DHT22;65138;50.946;7.074;2022-11-20T10:28:46;19.10;49.00
76139;DHT22;65138;50.946;7.074;2022-11-20T10:31:31;19.10;49.50
76139;DHT22;65138;50.946;7.074;2022-11-20T10:34:00;19.00;50.00
76139;DHT22;65138;50.946;7.074;2022-11-20T10:36:29;19.00;50.40
76139;DHT22;65138;50.946;7.074;2022-11-20T10:39:09;18.90;50.80
76139;DHT22;65138;50.946;7.074;2022-11-20T10:41:41;18.90;51.40
76139;DHT22;65138;50.946;7.074;2022-11-20T10:44:22;18.90;51.70
76139;DHT22;65138;50.946;7.074;2022-11-20T10:47:13;19.00;52.60
76139;DHT22;65138;50.946;7.074;2022-11-20T10:49:41;19.00;52.00
76139;DHT22;65138;50.946;7.074;2022-11-20T10:52:31;19.10;52.30
76139;DHT22;65138;50.946;7.074;2022-11-20T11:00:49;19.10;51.30
76139;DHT22;65138;50.946;7.074;2022-11-20T11:03:27;19.10;51.20
76139;DHT22;65138;50.946;7.074;2022-11-20T11:06:17;19.00;51.60
76139;DHT22;65138;50.946;7.074;2022-11-20T11:08:46;19.00;52.30
76139;DHT22;65138;50.946;7.074;2022-11-20T11:11:25;19.00;52.80
76139;DHT22;65138;50.946;7.074;2022-11-20T11:13:51;19.00;53.10
76139;DHT22;65138;50.946;7.074;2022-11-20T11:16:35;19.00;53.40
76139;DHT22;65138;50.946;7.074;2022-11-20T11:19:13;19.00;53.60
76139;DHT22;65138;50.946;7.074;2022-11-20T11:21:46;19.00;53.80
76139;DHT22;65138;50.946;7.074;2022-11-20T11:24:30;19.00;54.00
76139;DHT22;65138;50.946;7.074;2022-11-20T11:27:01;19.00;54.10
76139;DHT22;65138;50.946;7.074;2022-11-20T11:29:30;19.00;54.20
76139;DHT22;65138;50.946;7.074;2022-11-20T11:32:07;19.00;54.20
76139;DHT22;65138;50.946;7.074;2022-11-20T11:34:34;19.00;54.30
76139;DHT22;65138;50.946;7.074;2022-11-20T11:37:00;19.10;54.60
76139;DHT22;65138;50.946;7.074;2022-11-20T11:39:29;19.10;54.60
76139;DHT22;65138;50.946;7.074;2022-11-20T11:41:57;19.10;54.70
76139;DHT22;65138;50.946;7.074;2022-11-20T11:44:31;19.10;54.70
76139;DHT22;65138;50.946;7.074;2022-11-20T11:47:29;19.10;54.90
76139;DHT22;65138;50.946;7.074;2022-11-20T11:55:44;19.00;54.90
76139;DHT22;65138;50.946;7.074;2022-11-20T11:58:41;19.00;55.60
76139;DHT22;65138;50.946;7.074;2022-11-20T12:03:44;19.10;56.20
76139;DHT22;65138;50.946;7.074;2022-11-20T12:06:17;19.20;55.80
76139;DHT22;65138;50.946;7.074;2022-11-20T12:08:57;19.20;55.80
76139;DHT22;65138;50.946;7.074;2022-11-20T12:11:44;19.30;55.50
76139;DHT22;65138;50.946;7.074;2022-11-20T12:16:49;19.40;54.40
76139;DHT22;65138;50.946;7.074;2022-11-20T12:19:16;19.30;54.90
76139;DHT22;65138;50.946;7.074;2022-11-20T12:24:41;19.30;54.70
76139;DHT22;65138;50.946;7.074;2022-11-20T12:44:00;19.20;55.50
76139;DHT22;65138;50.946;7.074;2022-11-20T12:47:47;19.20;55.50
76139;DHT22;65138;50.946;7.074;2022-11-20T12:52:47;19.30;55.60
76139;DHT22;65138;50.946;7.074;2022-11-20T12:58:10;19.30;55.60
76139;DHT22;65138;50.946;7.074;2022-11-20T13:00:43;19.30;55.50
76139;DHT22;65138;50.946;7.074;2022-11-20T13:03:44;19.30;55.40
76139;DHT22;65138;50.946;7.074;2022-11-20T13:06:17;19.30;55.50
76139;DHT22;65138;50.946;7.074;2022-11-20T13:08:49;19.30;55.50
76139;DHT22;65138;50.946;7.074;2022-11-20T13:14:43;19.50;55.20
76139;DHT22;65138;50.946;7.074;2022-11-20T13:17:34;19.50;55.10
76139;DHT22;65138;50.946;7.074;2022-11-20T13:20:05;19.50;55.10
76139;DHT22;65138;50.946;7.074;2022-11-20T13:22:52;19.50;55.00
76139;DHT22;65138;50.946;7.074;2022-11-20T13:25:29;19.50;55.00
76139;DHT22;65138;50.946;7.074;2022-11-20T13:27:58;19.50;54.80
76139;DHT22;65138;50.946;7.074;2022-11-20T13:30:28;19.50;54.60
76139;DHT22;65138;50.946;7.074;2022-11-20T13:33:01;19.50;54.20
76139;DHT22;65138;50.946;7.074;2022-11-20T13:35:35;19.50;52.50
76139;DHT22;65138;50.946;7.074;2022-11-20T13:38:11;19.50;52.60
76139;DHT22;65138;50.946;7.074;2022-11-20T13:40:39;19.40;52.80
76139;DHT22;65138;50.946;7.074;2022-11-20T13:43:34;19.40;52.90
76139;DHT22;65138;50.946;7.074;2022-11-20T13:46:03;19.40;53.00
76139;DHT22;65138;50.946;7.074;2022-11-20T13:48:34;19.40;53.00
76139;DHT22;65138;50.946;7.074;2022-11-20T13:51:23;19.40;53.00
76139;DHT22;65138;50.946;7.074;2022-11-20T13:57:02;19.40;53.00
76139;DHT22;65138;50.946;7.074;2022-11-20T13:59:49;19.40;53.00
76139;DHT22;65138;50.946;7.074;2022-11-20T14:02:19;19.40;52.90
76139;DHT22;65138;50.946;7.074;2022-11-20T14:04:49;19.40;52.60
76139;DHT22;65138;50.946;7.074;2022-11-20T14:07:16;19.40;52.50
76139;DHT22;65138;50.946;7.074;2022-11-20T14:09:54;19.40;52.50
76139;DHT22;65138;50.946;7.074;2022-11-20T14:12:22;19.40;52.60
76139;DHT22;65138;50.946;7.074;2022-11-20T14:14:52;19.40;52.50
76139;DHT22;65138;50.946;7.074;2022-11-20T14:17:23;19.40;52.60
76139;DHT22;65138;50.946;7.074;2022-11-20T14:19:51;19.40;52.60
76139;DHT22;65138;50.946;7.074;2022-11-20T14:22:25;19.30;52.60
76139;DHT22;65138;50.946;7.074;2022-11-20T14:25:21;19.30;52.90
76139;DHT22;65138;50.946;7.074;2022-11-20T14:27:53;19.30;52.70
76139;DHT22;65138;50.946;7.074;2022-11-20T14:30:22;19.20;52.60
76139;DHT22;65138;50.946;7.074;2022-11-20T14:32:49;19.20;52.70
76139;DHT22;65138;50.946;7.074;2022-11-20T14:35:30;19.20;52.80
76139;DHT22;65138;50.946;7.074;2022-11-20T14:37:57;19.10;52.70
76139;DHT22;65138;50.946;7.074;2022-11-20T14:40:27;19.10;52.70
76139;DHT22;65138;50.946;7.074;2022-11-20T14:42:54;19.10;52.70
76139;DHT22;65138;50.946;7.074;2022-11-20T14:45:20;19.10;52.70
76139;DHT22;65138;50.946;7.074;2022-11-20T14:47:46;19.10;52.80
76139;DHT22;65138;50.946;7.074;2022-11-20T14:50:25;19.10;52.80
76139;DHT22;65138;50.946;7.074;2022-11-20T14:52:53;19.00;52.80
76139;DHT22;65138;50.946;7.074;2022-11-20T14:58:06;19.00;52.80
76139;DHT22;65138;50.946;7.074;2022-11-20T15:00:57;19.00;52.80
76139;DHT22;65138;50.946;7.074;2022-11-20T15:03:30;18.90;53.10
76139;DHT22;65138;50.946;7.074;2022-11-20T15:05:55;18.90;52.80
76139;DHT22;65138;50.946;7.074;2022-11-20T15:08:21;18.90;52.80
76139;DHT22;65138;50.946;7.074;2022-11-20T15:10:51;18.90;52.80
76139;DHT22;65138;50.946;7.074;2022-11-20T15:13:25;18.90;52.90
76139;DHT22;65138;50.946;7.074;2022-11-20T15:15:56;18.90;53.00
76139;DHT22;65138;50.946;7.074;2022-11-20T15:18:32;18.80;52.90
76139;DHT22;65138;50.946;7.074;2022-11-20T15:21:01;18.80;53.00
76139;DHT22;65138;50.946;7.074;2022-11-20T15:23:27;18.80;53.00
76139;DHT22;65138;50.946;7.074;2022-11-20T15:25:53;18.80;53.00
76139;DHT22;65138;50.946;7.074;2022-11-20T15:28:33;18.80;53.00
76139;DHT22;65138;50.946;7.074;2022-11-20T15:31:00;18.80;53.10
76139;DHT22;65138;50.946;7.074;2022-11-20T15:33:27;18.80;53.10
76139;DHT22;65138;50.946;7.074;2022-11-20T15:35:53;18.80;53.10
76139;DHT22;65138;50.946;7.074;2022-11-20T15:38:18;18.80;53.10
76139;DHT22;65138;50.946;7.074;2022-11-20T15:40:44;18.80;53.10
76139;DHT22;65138;50.946;7.074;2022-11-20T15:43:10;18.80;53.10
76139;DHT22;65138;50.946;7.074;2022-11-20T15:45:46;18.70;53.10
76139;DHT22;65138;50.946;7.074;2022-11-20T15:48:18;18.70;53.20
76139;DHT22;65138;50.946;7.074;2022-11-20T15:53:16;18.70;53.20
76139;DHT22;65138;50.946;7.074;2022-11-20T15:55:41;18.70;53.20
76139;DHT22;65138;50.946;7.074;2022-11-20T15:58:07;18.70;53.20
76139;DHT22;65138;50.946;7.074;2022-11-20T16:00:32;18.70;53.20
76139;DHT22;65138;50.946;7.074;2022-11-20T16:02:58;18.70;53.20
76139;DHT22;65138;50.946;7.074;2022-11-20T16:05:27;18.70;53.30
76139;DHT22;65138;50.946;7.074;2022-11-20T16:07:53;18.70;53.30
76139;DHT22;65138;50.946;7.074;2022-11-20T16:10:18;18.70;53.40
76139;DHT22;65138;50.946;7.074;2022-11-20T16:12:44;18.70;53.30
76139;DHT22;65138;50.946;7.074;2022-11-20T16:15:28;18.70;53.30
76139;DHT22;65138;50.946;7.074;2022-11-20T16:18:21;18.70;53.30
76139;DHT22;65138;50.946;7.074;2022-11-20T16:20:50;18.70;53.40
76139;DHT22;65138;50.946;7.074;2022-11-20T16:23:16;18.70;53.40
76139;DHT22;65138;50.946;7.074;2022-11-20T16:25:43;18.70;54.00
76139;DHT22;65138;50.946;7.074;2022-11-20T16:28:09;18.70;53.50
76139;DHT22;65138;50.946;7.074;2022-11-20T16:30:35;18.70;53.50
76139;DHT22;65138;50.946;7.074;2022-11-20T16:33:01;18.70;53.50
76139;DHT22;65138;50.946;7.074;2022-11-20T16:35:28;18.70;53.50
76139;DHT22;65138;50.946;7.074;2022-11-20T16:37:55;18.70;53.50
76139;DHT22;65138;50.946;7.074;2022-11-20T16:40:21;18.70;53.50
76139;DHT22;65138;50.946;7.074;2022-11-20T16:42:47;18.70;53.50
76139;DHT22;65138;50.946;7.074;2022-11-20T16:45:12;18.70;53.50
76139;DHT22;65138;50.946;7.074;2022-11-20T16:47:38;18.70;53.60
76139;DHT22;65138;50.946;7.074;2022-11-20T16:50:04;18.70;53.60
76139;DHT22;65138;50.946;7.074;2022-11-20T16:52:31;18.70;53.60
76139;DHT22;65138;50.946;7.074;2022-11-20T16:54:57;18.70;53.60
76139;DHT22;65138;50.946;7.074;2022-11-20T16:57:23;18.70;53.60
76139;DHT22;65138;50.946;7.074;2022-11-20T16:59:48;18.70;53.70
76139;DHT22;65138;50.946;7.074;2022-11-20T17:02:15;18.70;53.60
76139;DHT22;65138;50.946;7.074;2022-11-20T17:04:40;18.70;53.60
76139;DHT22;65138;50.946;7.074;2022-11-20T17:07:06;18.70;53.60
76139;DHT22;65138;50.946;7.074;2022-11-20T17:09:32;18.70;53.60
76139;DHT22;65138;50.946;7.074;2022-11-20T17:11:58;18.70;53.60
76139;DHT22;65138;50.946;7.074;2022-11-20T17:14:24;18.70;53.70
76139;DHT22;65138;50.946;7.074;2022-11-20T17:16:49;18.70;53.60
76139;DHT22;65138;50.946;7.074;2022-11-20T17:19:15;18.70;53.60
76139;DHT22;65138;50.946;7.074;2022-11-20T17:21:41;18.70;53.60
76139;DHT22;65138;50.946;7.074;2022-11-20T17:24:09;18.70;53.60
76139;DHT22;65138;50.946;7.074;2022-11-20T17:26:37;18.70;53.70
76139;DHT22;65138;50.946;7.074;2022-11-20T17:29:11;18.70;53.80
76139;DHT22;65138;50.946;7.074;2022-11-20T17:31:37;18.70;53.70
76139;DHT22;65138;50.946;7.074;2022-11-20T17:34:04;18.70;53.70
76139;DHT22;65138;50.946;7.074;2022-11-20T17:36:30;18.70;53.80
76139;DHT22;65138;50.946;7.074;2022-11-20T17:38:56;18.60;53.70
76139;DHT22;65138;50.946;7.074;2022-11-20T17:41:24;18.60;53.90
76139;DHT22;65138;50.946;7.074;2022-11-20T17:43:53;18.60;53.90
76139;DHT22;65138;50.946;7.074;2022-11-20T17:46:21;18.50;54.10
76139;DHT22;65138;50.946;7.074;2022-11-20T17:48:48;18.30;55.00
76139;DHT22;65138;50.946;7.074;2022-11-20T17:51:22;18.30;56.00
76139;DHT22;65138;50.946;7.074;2022-11-20T17:53:51;18.20;56.60
76139;DHT22;65138;50.946;7.074;2022-11-20T17:56:16;18.20;56.80
76139;DHT22;65138;50.946;7.074;2022-11-20T17:59:05;18.20;56.90
76139;DHT22;65138;50.946;7.074;2022-11-20T18:01:31;18.10;56.80
76139;DHT22;65138;50.946;7.074;2022-11-20T18:03:57;18.10;57.90
76139;DHT22;65138;50.946;7.074;2022-11-20T18:06:24;18.10;58.70
76139;DHT22;65138;50.946;7.074;2022-11-20T18:08:50;18.10;57.90
76139;DHT22;65138;50.946;7.074;2022-11-20T18:11:18;18.10;57.50
76139;DHT22;65138;50.946;7.074;2022-11-20T18:13:47;18.10;57.30
76139;DHT22;65138;50.946;7.074;2022-11-20T18:16:34;18.00;56.80
76139;DHT22;65138;50.946;7.074;2022-11-20T18:19:00;18.00;56.50
76139;DHT22;65138;50.946;7.074;2022-11-20T18:21:27;18.00;56.70
76139;DHT22;65138;50.946;7.074;2022-11-20T18:23:54;17.90;56.90
76139;DHT22;65138;50.946;7.074;2022-11-20T18:26:20;17.90;57.10
76139;DHT22;65138;50.946;7.074;2022-11-20T18:28:46;17.90;57.60
76139;DHT22;65138;50.946;7.074;2022-11-20T18:31:12;17.90;57.80
76139;DHT22;65138;50.946;7.074;2022-11-20T18:33:38;17.90;58.00
76139;DHT22;65138;50.946;7.074;2022-11-20T18:36:08;17.90;58.00
76139;DHT22;65138;50.946;7.074;2022-11-20T18:38:34;17.90;58.20
76139;DHT22;65138;50.946;7.074;2022-11-20T18:40:59;17.90;58.40
76139;DHT22;65138;50.946;7.074;2022-11-20T18:43:25;17.90;58.40
76139;DHT22;65138;50.946;7.074;2022-11-20T18:46:09;17.90;58.30
76139;DHT22;65138;50.946;7.074;2022-11-20T18:48:35;17.90;58.80
76139;DHT22;65138;50.946;7.074;2022-11-20T18:51:05;17.90;58.10
76139;DHT22;65138;50.946;7.074;2022-11-20T18:53:30;17.90;58.10
76139;DHT22;65138;50.946;7.074;2022-11-20T18:55:56;17.80;58.60
76139;DHT22;65138;50.946;7.074;2022-11-20T18:58:21;17.80;59.10
76139;DHT22;65138;50.946;7.074;2022-11-20T19:00:47;17.80;59.50
76139;DHT22;65138;50.946;7.074;2022-11-20T19:03:13;17.80;60.00
76139;DHT22;65138;50.946;7.074;2022-11-20T19:05:38;17.80;60.40
76139;DHT22;65138;50.946;7.074;2022-11-20T19:08:04;17.80;60.70
76139;DHT22;65138;50.946;7.074;2022-11-20T19:10:30;17.90;60.90
76139;DHT22;65138;50.946;7.074;2022-11-20T19:12:55;17.90;61.20
76139;DHT22;65138;50.946;7.074;2022-11-20T19:15:22;17.90;61.30
76139;DHT22;65138;50.946;7.074;2022-11-20T19:17:48;17.90;61.40
76139;DHT22;65138;50.946;7.074;2022-11-20T19:20:14;17.90;61.40
76139;DHT22;65138;50.946;7.074;2022-11-20T19:22:39;17.90;61.30
76139;DHT22;65138;50.946;7.074;2022-11-20T19:25:05;17.90;61.40
76139;DHT22;65138;50.946;7.074;2022-11-20T19:27:31;17.90;61.40
76139;DHT22;65138;50.946;7.074;2022-11-20T19:29:56;17.90;61.60
76139;DHT22;65138;50.946;7.074;2022-11-20T19:32:27;18.00;61.60
76139;DHT22;65138;50.946;7.074;2022-11-20T19:34:53;18.00;61.40
76139;DHT22;65138;50.946;7.074;2022-11-20T19:37:18;17.90;60.90
76139;DHT22;65138;50.946;7.074;2022-11-20T19:39:44;17.90;61.00
76139;DHT22;65138;50.946;7.074;2022-11-20T19:42:09;18.00;61.10
76139;DHT22;65138;50.946;7.074;2022-11-20T19:44:35;18.00;61.20
76139;DHT22;65138;50.946;7.074;2022-11-20T19:47:00;18.00;61.30
76139;DHT22;65138;50.946;7.074;2022-11-20T19:49:28;18.00;61.20
76139;DHT22;65138;50.946;7.074;2022-11-20T19:51:54;18.00;61.20
76139;DHT22;65138;50.946;7.074;2022-11-20T19:54:20;18.00;61.20
76139;DHT22;65138;50.946;7.074;2022-11-20T19:56:46;18.00;61.20
76139;DHT22;65138;50.946;7.074;2022-11-20T19:59:13;18.00;61.10
76139;DHT22;65138;50.946;7.074;2022-11-20T20:01:39;18.00;61.10
76139;DHT22;65138;50.946;7.074;2022-11-20T20:04:05;18.00;61.20
76139;DHT22;65138;50.946;7.074;2022-11-20T20:06:33;18.00;61.10
76139;DHT22;65138;50.946;7.074;2022-11-20T20:09:07;18.00;60.90
76139;DHT22;65138;50.946;7.074;2022-11-20T20:11:34;18.00;60.90
76139;DHT22;65138;50.946;7.074;2022-11-20T20:14:12;18.00;60.90
76139;DHT22;65138;50.946;7.074;2022-11-20T20:16:39;18.00;60.80
76139;DHT22;65138;50.946;7.074;2022-11-20T20:19:05;18.00;60.70
76139;DHT22;65138;50.946;7.074;2022-11-20T20:21:32;18.00;60.60
76139;DHT22;65138;50.946;7.074;2022-11-20T20:23:58;18.00;60.50
76139;DHT22;65138;50.946;7.074;2022-11-20T20:26:26;18.10;60.40
76139;DHT22;65138;50.946;7.074;2022-11-20T20:28:52;18.00;60.30
76139;DHT22;65138;50.946;7.074;2022-11-20T20:31:20;18.00;60.30
76139;DHT22;65138;50.946;7.074;2022-11-20T20:33:46;18.10;60.30
76139;DHT22;65138;50.946;7.074;2022-11-20T20:36:14;18.00;60.20
76139;DHT22;65138;50.946;7.074;2022-11-20T20:38:40;18.00;60.10
76139;DHT22;65138;50.946;7.074;2022-11-20T20:41:06;18.00;60.10
76139;DHT22;65138;50.946;7.074;2022-11-20T20:43:32;18.00;60.00
76139;DHT22;65138;50.946;7.074;2022-11-20T20:46:18;18.00;59.90
76139;DHT22;65138;50.946;7.074;2022-11-20T20:48:43;18.00;59.90
76139;DHT22;65138;50.946;7.074;2022-11-20T20:51:09;18.10;59.90
76139;DHT22;65138;50.946;7.074;2022-11-20T20:53:35;18.00;59.80
76139;DHT22;65138;50.946;7.074;2022-11-20T20:56:01;18.10;59.80
76139;DHT22;65138;50.946;7.074;2022-11-20T20:58:28;18.10;59.80
76139;DHT22;65138;50.946;7.074;2022-11-20T21:01:00;18.10;59.70
76139;DHT22;65138;50.946;7.074;2022-11-20T21:03:25;18.10;59.70
76139;DHT22;65138;50.946;7.074;2022-11-20T21:05:55;18.10;59.70
76139;DHT22;65138;50.946;7.074;2022-11-20T21:08:24;18.10;59.80
76139;DHT22;65138;50.946;7.074;2022-11-20T21:10:52;18.10;59.70
76139;DHT22;65138;50.946;7.074;2022-11-20T21:13:19;18.10;59.70
76139;DHT22;65138;50.946;7.074;2022-11-20T21:15:47;18.00;59.40
76139;DHT22;65138;50.946;7.074;2022-11-20T21:18:14;18.00;59.30
76139;DHT22;65138;50.946;7.074;2022-11-20T21:20:40;18.00;59.30
76139;DHT22;65138;50.946;7.074;2022-11-20T21:23:25;18.00;59.40
76139;DHT22;65138;50.946;7.074;2022-11-20T21:25:50;18.00;59.40
76139;DHT22;65138;50.946;7.074;2022-11-20T21:28:16;18.00;59.40
76139;DHT22;65138;50.946;7.074;2022-11-20T21:30:41;18.00;59.30
76139;DHT22;65138;50.946;7.074;2022-11-20T21:33:07;18.00;59.30
76139;DHT22;65138;50.946;7.074;2022-11-20T21:35:33;18.00;59.30
76139;DHT22;65138;50.946;7.074;2022-11-20T21:37:59;18.00;59.20
76139;DHT22;65138;50.946;7.074;2022-11-20T21:40:25;18.00;59.20
76139;DHT22;65138;50.946;7.074;2022-11-20T21:42:52;18.00;59.10
76139;DHT22;65138;50.946;7.074;2022-11-20T21:45:17;18.00;59.10
76139;DHT22;65138;50.946;7.074;2022-11-20T21:47:43;18.00;59.10
76139;DHT22;65138;50.946;7.074;2022-11-20T21:50:09;18.00;59.10
76139;DHT22;65138;50.946;7.074;2022-11-20T21:52:34;18.00;59.00
76139;DHT22;65138;50.946;7.074;2022-11-20T21:55:00;18.00;59.00
76139;DHT22;65138;50.946;7.074;2022-11-20T21:57:26;17.90;58.90
76139;DHT22;65138;50.946;7.074;2022-11-20T21:59:51;17.90;58.90
76139;DHT22;65138;50.946;7.074;2022-11-20T22:02:17;17.90;59.50
76139;DHT22;65138;50.946;7.074;2022-11-20T22:04:42;17.90;58.90
76139;DHT22;65138;50.946;7.074;2022-11-20T22:07:08;18.00;58.90
76139;DHT22;65138;50.946;7.074;2022-11-20T22:09:33;17.90;58.80
76139;DHT22;65138;50.946;7.074;2022-11-20T22:11:59;17.90;58.80
76139;DHT22;65138;50.946;7.074;2022-11-20T22:14:25;17.90;58.80
76139;DHT22;65138;50.946;7.074;2022-11-20T22:16:51;17.90;58.80
76139;DHT22;65138;50.946;7.074;2022-11-20T22:19:19;17.90;58.80
76139;DHT22;65138;50.946;7.074;2022-11-20T22:21:45;17.90;58.80
76139;DHT22;65138;50.946;7.074;2022-11-20T22:24:13;17.90;58.70
76139;DHT22;65138;50.946;7.074;2022-11-20T22:26:39;17.90;58.70
76139;DHT22;65138;50.946;7.074;2022-11-20T22:29:04;17.90;58.80
76139;DHT22;65138;50.946;7.074;2022-11-20T22:31:30;17.90;58.70
76139;DHT22;65138;50.946;7.074;2022-11-20T22:33:57;17.90;58.70
76139;DHT22;65138;50.946;7.074;2022-11-20T22:36:26;17.90;58.70
76139;DHT22;65138;50.946;7.074;2022-11-20T22:38:55;17.90;58.70
76139;DHT22;65138;50.946;7.074;2022-11-20T22:41:26;17.90;58.70
76139;DHT22;65138;50.946;7.074;2022-11-20T22:44:02;17.90;58.60
76139;DHT22;65138;50.946;7.074;2022-11-20T22:46:30;17.90;58.70
76139;DHT22;65138;50.946;7.074;2022-11-20T22:49:02;17.90;58.70
76139;DHT22;65138;50.946;7.074;2022-11-20T22:51:35;17.80;58.60
76139;DHT22;65138;50.946;7.074;2022-11-20T22:54:02;17.90;58.70
76139;DHT22;65138;50.946;7.074;2022-11-20T22:56:28;17.80;58.50
76139;DHT22;65138;50.946;7.074;2022-11-20T22:58:54;17.80;59.10
76139;DHT22;65138;50.946;7.074;2022-11-20T23:01:24;17.80;58.50
76139;DHT22;65138;50.946;7.074;2022-11-20T23:04:19;17.80;58.50
76139;DHT22;65138;50.946;7.074;2022-11-20T23:06:45;17.80;58.50
76139;DHT22;65138;50.946;7.074;2022-11-20T23:09:10;17.80;58.50
76139;DHT22;65138;50.946;7.074;2022-11-20T23:11:37;17.80;58.50
76139;DHT22;65138;50.946;7.074;2022-11-20T23:14:11;17.70;58.50
76139;DHT22;65138;50.946;7.074;2022-11-20T23:16:37;17.70;58.50
76139;DHT22;65138;50.946;7.074;2022-11-20T23:19:07;17.70;58.50
76139;DHT22;65138;50.946;7.074;2022-11-20T23:21:34;17.70;58.50
76139;DHT22;65138;50.946;7.074;2022-11-20T23:24:00;17.70;58.50
76139;DHT22;65138;50.946;7.074;2022-11-20T23:26:28;17.70;58.60
76139;DHT22;65138;50.946;7.074;2022-11-20T23:28:55;17.60;58.50
76139;DHT22;65138;50.946;7.074;2022-11-20T23:31:22;17.60;58.60
76139;DHT22;65138;50.946;7.074;2022-11-20T23:33:49;17.60;58.60
76139;DHT22;65138;50.946;7.074;2022-11-20T23:36:14;17.60;58.60
76139;DHT22;65138;50.946;7.074;2022-11-20T23:38:40;17.60;58.60
76139;DHT22;65138;50.946;7.074;2022-11-20T23:41:06;17.50;58.60
76139;DHT22;65138;50.946;7.074;2022-11-20T23:43:32;17.50;58.60
76139;DHT22;65138;50.946;7.074;2022-11-20T23:46:00;17.50;58.60
76139;DHT22;65138;50.946;7.074;2022-11-20T23:48:28;17.40;58.60
76139;DHT22;65138;50.946;7.074;2022-11-20T23:50:54;17.50;58.60
76139;DHT22;65138;50.946;7.074;2022-11-20T23:53:20;17.40;58.60
76139;DHT22;65138;50.946;7.074;2022-11-20T23:55:48;17.40;58.70
76139;DHT22;65138;50.946;7.074;2022-11-20T23:58:14;17.40;58.70
